createdAt,value
2016-08-30T00:04:16.912Z,30.3
2016-08-30T00:15:16.896Z,30.5
2016-08-30T00:26:17.509Z,30.2
2016-08-30T00:37:16.870Z,29.7
2016-08-30T00:48:20.149Z,29.5
2016-08-30T00:59:17.169Z,29.4
2016-08-30T01:10:16.841Z,29.5
2016-08-30T01:21:17.145Z,29.4
2016-08-30T01:32:16.970Z,29.4
2016-08-30T01:43:17.379Z,29.1
2016-08-30T01:54:16.652Z,28.8
2016-08-30T02:05:16.845Z,29
2016-08-30T02:16:17.578Z,29
2016-08-30T02:27:16.385Z,28.4
2016-08-30T02:38:16.981Z,28.1
2016-08-30T02:49:16.431Z,28.3
2016-08-30T03:00:16.709Z,28.3
2016-08-30T03:11:16.765Z,28.1
2016-08-30T03:22:17.005Z,28.3
2016-08-30T03:33:17.124Z,28
2016-08-30T03:44:17.025Z,27.1
2016-08-30T03:55:15.996Z,28.1
2016-08-30T04:06:16.940Z,26.8
2016-08-30T04:17:17.470Z,27.3
2016-08-30T04:28:16.638Z,27.6
2016-08-30T04:39:17.159Z,27.2
2016-08-30T04:50:16.602Z,27.2
2016-08-30T05:01:16.797Z,27.4
2016-08-30T05:12:16.734Z,27.3
2016-08-30T05:23:17.650Z,27.5
2016-08-30T05:34:16.431Z,27.3
2016-08-30T05:45:17.147Z,28
2016-08-30T05:57:19.760Z,27.8
2016-08-30T06:07:16.605Z,28.4
2016-08-30T06:18:17.036Z,29
2016-08-30T06:29:16.714Z,29.5
2016-08-30T06:40:16.774Z,29.6
2016-08-30T06:51:17.017Z,30.4
2016-08-30T07:02:16.560Z,30.7
2016-08-30T07:13:17.176Z,30.9
2016-08-30T07:24:16.438Z,30.8
2016-08-30T07:35:17.097Z,31.4
2016-08-30T07:46:16.886Z,31.6
2016-08-30T07:57:17.172Z,31.7
2016-08-30T08:08:17.226Z,32
2016-08-30T08:19:17.380Z,31.8
2016-08-30T08:30:16.639Z,32.2
2016-08-30T08:42:03.626Z,31.8
2016-08-30T08:52:16.735Z,33
2016-08-30T09:03:17.096Z,33
2016-08-30T09:14:16.645Z,32.8
2016-08-30T09:25:16.296Z,32.7
2016-08-30T09:36:16.849Z,33.1
2016-08-30T09:47:16.966Z,33.3
2016-08-30T09:58:17.458Z,33.4
2016-08-30T10:09:17.003Z,33.2
2016-08-30T10:20:17.250Z,33.5
2016-08-30T10:31:16.725Z,33.7
2016-08-30T10:42:16.598Z,33.9
2016-08-30T10:53:16.769Z,33.7
2016-08-30T11:04:16.478Z,33.9
2016-08-30T11:15:16.441Z,34.1
2016-08-30T11:26:16.784Z,34.6
2016-08-30T11:37:16.847Z,34.1
2016-08-30T11:48:16.953Z,34.5
2016-08-30T11:59:16.977Z,34.3
2016-08-30T12:10:17.156Z,34.5
2016-08-30T12:21:17.044Z,34.5
2016-08-30T12:32:16.815Z,35.7
2016-08-30T12:43:16.968Z,35.1
2016-08-30T12:54:16.750Z,35.5
2016-08-30T13:05:16.367Z,35
2016-08-30T13:16:16.725Z,34.8
2016-08-30T13:27:16.351Z,35
2016-08-30T13:38:20.001Z,35
2016-08-30T13:49:17.237Z,36.1
2016-08-30T14:00:16.780Z,35.9
2016-08-30T14:11:16.767Z,36
2016-08-30T14:22:16.551Z,35.6
2016-08-30T14:33:16.775Z,36
2016-08-30T14:44:17.522Z,35.5
2016-08-30T14:55:16.164Z,35.5
2016-08-30T15:06:17.471Z,35.6
2016-08-30T15:17:17.345Z,39.9
2016-08-30T15:28:18.003Z,41
2016-08-30T15:39:16.786Z,42.4
2016-08-30T15:50:16.859Z,42.8
2016-08-30T16:01:16.618Z,44.1
2016-08-30T16:12:16.956Z,41.4
2016-08-30T16:23:17.496Z,41.2
2016-08-30T16:34:16.747Z,40.9
2016-08-30T16:45:16.757Z,41.1
2016-08-30T16:56:16.339Z,40.5
2016-08-30T17:07:16.618Z,40
2016-08-30T17:18:17.864Z,39.2
2016-08-30T17:29:18.386Z,38.4
2016-08-30T17:40:17.384Z,37.9
2016-08-30T17:51:16.780Z,38.3
2016-08-30T18:02:16.548Z,38
2016-08-30T18:13:17.255Z,36.7
2016-08-30T18:24:16.564Z,35.9
2016-08-30T18:35:16.761Z,36
2016-08-30T18:46:16.738Z,35.6
2016-08-30T18:57:16.731Z,35.3
2016-08-30T19:08:18.002Z,34.9
2016-08-30T19:19:16.695Z,34.5
2016-08-30T19:30:18.337Z,34.1
2016-08-30T19:41:16.805Z,34
2016-08-30T19:52:16.996Z,33.7
2016-08-30T20:03:16.908Z,33
2016-08-30T20:14:16.756Z,33.2
2016-08-30T20:25:15.960Z,32.6
2016-08-30T20:36:17.265Z,32.4
2016-08-30T20:47:16.299Z,32.6
2016-08-30T20:58:17.509Z,32.5
2016-08-30T21:09:16.891Z,32.3
2016-08-30T21:20:16.592Z,32.1
2016-08-30T21:31:17.006Z,31.9
2016-08-30T21:42:16.410Z,31.6
2016-08-30T21:53:17.306Z,31.8
2016-08-30T22:04:16.633Z,31.7
2016-08-30T22:15:16.132Z,31.4
2016-08-30T22:26:17.528Z,31
2016-08-30T22:37:16.924Z,30.4
2016-08-30T22:48:18.055Z,30.9
2016-08-30T22:59:16.826Z,30.8
2016-08-30T23:10:16.975Z,30.7
2016-08-30T23:22:17.311Z,30.4
2016-08-30T23:33:16.952Z,30.2
2016-08-30T23:44:16.687Z,30.8
2016-08-30T23:55:17.007Z,29.9
